No.3tokuyomaru — JD3132 — position and weather

sailwx.info

Track history (hours):
 
Tides and Currents Weather Stations Pressure Air Temp Water Temp Dewpoint Dewpoint Depression Visibility Wind Speed Wind Dir Waves Ship Positions

No.3tokuyomaru

Last reported at 2016-Jul-29 23:10 UTC. Time now 2016-Jul-30 03:33 UTC.
Position N 35°54' E 140°41'.

Length 67 m; draft 4.6 m.

Type: Tanker. MMSI: 431002151.

Date/timePositionNaut miles runAvg speedWind from/ knotsBaromVisibWave heightAir tempDewpointWater temp
2016-Jul-29 23:10N 35°54' E 140°41'4 2.4
2016-Jul-29 21:33N 35°57' E 140°42'0 0.0
2016-Jul-29 20:33N 35°57' E 140°42'0 0.0
2016-Jul-29 19:27N 35°57' E 140°42'25 8.4
2016-Jul-29 16:28N 35°33' E 140°49'1312.4
2016-Jul-29 15:23N 35°22' E 140°39'3612.7
2016-Jul-29 12:31N 34°57' E 140°07'1712.3
2016-Jul-29 11:10N 34°53' E 139°47'1911.9
2016-Jul-29 09:33N 35°12' E 139°46'1211.9
2016-Jul-29 08:33N 35°23' E 139°42'7 7.3
2016-Jul-29 07:33N 35°30' E 139°45'0 0.0
2016-Jul-29 06:33N 35°30' E 139°45'0 0.0
2016-Jul-29 05:33N 35°30' E 139°45'0 0.0
2016-Jul-29 04:30N 35°30' E 139°45'0 0.0
2016-Jul-29 03:30N 35°30' E 139°45'0 0.0
2016-Jul-29 02:33N 35°30' E 139°45'4 3.7
2016-Jul-29 01:33N 35°29' E 139°49'0 0.1
2016-Jul-29 00:33N 35°29' E 139°49'0 0.0
2016-Jul-28 23:33N 35°29' E 139°49'0 0.0
2016-Jul-28 22:33N 35°29' E 139°49'0 0.0
2016-Jul-28 21:33N 35°29' E 139°49'0 0.0
2016-Jul-28 20:33N 35°29' E 139°49'0 0.0
2016-Jul-28 19:33N 35°29' E 139°49'0 0.0
2016-Jul-28 18:33N 35°29' E 139°49'0 0.0
2016-Jul-28 17:33N 35°29' E 139°49'0 0.0
2016-Jul-28 16:33N 35°29' E 139°49'0 0.0
2016-Jul-28 15:33N 35°29' E 139°49'0 0.0
2016-Jul-28 14:33N 35°29' E 139°49'0 0.0
2016-Jul-28 13:33N 35°29' E 139°49'0 0.0
2016-Jul-28 12:33N 35°29' E 139°49'0 0.0
2016-Jul-28 11:33N 35°29' E 139°49'7 7.1
2016-Jul-28 10:33N 35°22' E 139°45'1211.8
2016-Jul-28 09:34N 35°10' E 139°45'14 0.6
2016-Jul-27 11:32N 34°56' E 139°44'2210.6
2016-Jul-27 09:27N 35°00' E 140°11'6110.0
2016-Jul-27 03:23N 35°56' E 140°42'2 0.5
2016-Jul-26 22:04N 35°54' E 140°41'53 4.8
2016-Jul-26 11:04N 35°04' E 140°17'712.8
2016-Jul-26 10:33N 35°00' E 140°10'23 7.2
2016-Jul-26 07:23N 35°11' E 139°46'1011.8
2016-Jul-26 06:33N 35°21' E 139°43'1010.3
2016-Jul-26 05:33N 35°30' E 139°46'1 1.0
2016-Jul-26 04:29N 35°30' E 139°45'0 0.0
2016-Jul-26 03:29N 35°30' E 139°45'0 0.0
2016-Jul-26 02:29N 35°30' E 139°45'0 0.0
2016-Jul-26 01:32N 35°30' E 139°45'0 0.0
2016-Jul-26 00:32N 35°30' E 139°45'2 2.4
2016-Jul-25 23:33N 35°30' E 139°48'1 1.2
2016-Jul-25 22:31N 35°29' E 139°49'0 0.0
2016-Jul-25 21:31N 35°29' E 139°49'0 0.0
2016-Jul-25 20:31N 35°29' E 139°49'0 0.1
2016-Jul-25 19:31N 35°29' E 139°49'0 0.0
2016-Jul-25 18:31N 35°29' E 139°49'0 0.0
2016-Jul-25 17:31N 35°29' E 139°49'0 0.0
2016-Jul-25 16:31N 35°29' E 139°49'0 0.0
2016-Jul-25 15:31N 35°29' E 139°49'5 4.7
2016-Jul-25 14:33N 35°25' E 139°46'1111.4
2016-Jul-25 13:33N 35°13' E 139°47'1713.2
2016-Jul-25 12:18N 34°57' E 139°44'2211.2
2016-Jul-25 10:18N 35°01' E 140°11'58 5.3
2016-Jul-24 23:11N 35°54' E 140°41'57 4.8
2016-Jul-24 11:25N 35°02' E 140°13'1511.8
2016-Jul-24 10:07N 34°53' E 139°58'22 8.7
2016-Jul-24 07:33N 35°13' E 139°46'1211.6
2016-Jul-24 06:33N 35°25' E 139°43'6 5.6
2016-Jul-24 05:33N 35°30' E 139°45'0 0.0
2016-Jul-24 04:33N 35°30' E 139°45'0 0.0
2016-Jul-24 03:33N 35°30' E 139°45'0 0.0
2016-Jul-24 02:30N 35°30' E 139°45'0 0.0
2016-Jul-24 01:33N 35°30' E 139°45'0 0.0
2016-Jul-24 00:33N 35°30' E 139°45'3 3.3
2016-Jul-23 23:31N 35°29' E 139°49'0 0.0
2016-Jul-23 22:31N 35°29' E 139°49'0 0.0
2016-Jul-23 21:31N 35°29' E 139°49'0 0.0
2016-Jul-23 20:31N 35°29' E 139°49'0 0.0
2016-Jul-23 19:31N 35°29' E 139°49'0 0.0
2016-Jul-23 18:31N 35°29' E 139°49'0 0.0
2016-Jul-23 17:28N 35°29' E 139°49'0 0.0
2016-Jul-23 16:31N 35°29' E 139°49'0 0.0
2016-Jul-23 15:31N 35°29' E 139°49'4 4.3
2016-Jul-23 14:33N 35°25' E 139°47'1110.5
2016-Jul-23 13:33N 35°15' E 139°47'24 7.5
2016-Jul-23 10:20N 34°60' E 140°10'62 5.2
2016-Jul-22 22:20N 35°56' E 140°42'1 0.5
2016-Jul-22 21:04N 35°57' E 140°42'0 0.0
2016-Jul-22 19:04N 35°57' E 140°42'4 6.9
2016-Jul-22 18:30N 35°55' E 140°46'29 9.4
2016-Jul-22 15:26N 35°26' E 140°42'3411.1
2016-Jul-22 12:22N 35°01' E 140°13'1011.7
2016-Jul-22 11:33N 34°56' E 140°03'1510.4
2016-Jul-22 10:06N 34°56' E 139°45'811.4
2016-Jul-22 09:27N 35°03' E 139°44'1212.7
2016-Jul-22 08:30N 35°15' E 139°46'1111.4
2016-Jul-22 07:33N 35°26' E 139°44'5 0.9
2016-Jul-22 02:28N 35°30' E 139°45'0 0.1
2016-Jul-22 01:33N 35°30' E 139°45'3 2.6
2016-Jul-22 00:33N 35°30' E 139°48'1 1.2
2016-Jul-21 23:33N 35°29' E 139°49'0 0.0
2016-Jul-21 22:33N 35°29' E 139°49'0 0.0
2016-Jul-21 21:33N 35°29' E 139°49'0 0.0
2016-Jul-21 20:33N 35°29' E 139°49'0 0.3
2016-Jul-21 19:34N 35°29' E 139°49'1211.9
2016-Jul-21 18:33N 35°17' E 139°45'26 7.7
2016-Jul-21 15:14N 34°58' E 140°07'3512.4
2016-Jul-21 12:26N 35°24' E 140°34'30 3.6
2016-Jul-21 04:05N 35°54' E 140°41'60 4.4
2016-Jul-20 14:33N 34°59' E 140°09'22 7.3
2016-Jul-20 11:33N 35°10' E 139°46'1312.7
2016-Jul-20 10:33N 35°22' E 139°42'8 8.1
2016-Jul-20 09:34N 35°30' E 139°45'0 0.0
2016-Jul-20 06:10N 35°30' E 139°45'0 0.0
2016-Jul-20 04:28N 35°30' E 139°45'4 4.7
2016-Jul-20 03:34N 35°26' E 139°47'1110.5
2016-Jul-20 02:32N 35°15' E 139°47'  
Track history (hours):
 
Tides and Currents Weather Stations Pressure Air Temp Water Temp Dewpoint Dewpoint Depression Visibility Wind Speed Wind Dir Waves Ship Positions

No.3tokuyomaru

Last reported at 2016-Jul-29 23:10 UTC. Time now 2016-Jul-30 03:33 UTC.
Position N 35°54' E 140°41'.

Length 67 m; draft 4.6 m.

Type: Tanker. MMSI: 431002151.

Date/timePositionNaut miles runAvg speedWind from/ knotsBaromVisibWave heightAir tempDewpointWater temp
2016-Jul-29 23:10N 35°54' E 140°41'4 2.4
2016-Jul-29 21:33N 35°57' E 140°42'0 0.0
2016-Jul-29 20:33N 35°57' E 140°42'0 0.0
2016-Jul-29 19:27N 35°57' E 140°42'25 8.4
2016-Jul-29 16:28N 35°33' E 140°49'1312.4
2016-Jul-29 15:23N 35°22' E 140°39'3612.7
2016-Jul-29 12:31N 34°57' E 140°07'1712.3
2016-Jul-29 11:10N 34°53' E 139°47'1911.9
2016-Jul-29 09:33N 35°12' E 139°46'1211.9
2016-Jul-29 08:33N 35°23' E 139°42'7 7.3
2016-Jul-29 07:33N 35°30' E 139°45'0 0.0
2016-Jul-29 06:33N 35°30' E 139°45'0 0.0
2016-Jul-29 05:33N 35°30' E 139°45'0 0.0
2016-Jul-29 04:30N 35°30' E 139°45'0 0.0
2016-Jul-29 03:30N 35°30' E 139°45'0 0.0
2016-Jul-29 02:33N 35°30' E 139°45'4 3.7
2016-Jul-29 01:33N 35°29' E 139°49'0 0.1
2016-Jul-29 00:33N 35°29' E 139°49'0 0.0
2016-Jul-28 23:33N 35°29' E 139°49'0 0.0
2016-Jul-28 22:33N 35°29' E 139°49'0 0.0
2016-Jul-28 21:33N 35°29' E 139°49'0 0.0
2016-Jul-28 20:33N 35°29' E 139°49'0 0.0
2016-Jul-28 19:33N 35°29' E 139°49'0 0.0
2016-Jul-28 18:33N 35°29' E 139°49'0 0.0
2016-Jul-28 17:33N 35°29' E 139°49'0 0.0
2016-Jul-28 16:33N 35°29' E 139°49'0 0.0
2016-Jul-28 15:33N 35°29' E 139°49'0 0.0
2016-Jul-28 14:33N 35°29' E 139°49'0 0.0
2016-Jul-28 13:33N 35°29' E 139°49'0 0.0
2016-Jul-28 12:33N 35°29' E 139°49'0 0.0
2016-Jul-28 11:33N 35°29' E 139°49'7 7.1
2016-Jul-28 10:33N 35°22' E 139°45'1211.8
2016-Jul-28 09:34N 35°10' E 139°45'14 0.6
2016-Jul-27 11:32N 34°56' E 139°44'2210.6
2016-Jul-27 09:27N 35°00' E 140°11'6110.0
2016-Jul-27 03:23N 35°56' E 140°42'2 0.5
2016-Jul-26 22:04N 35°54' E 140°41'53 4.8
2016-Jul-26 11:04N 35°04' E 140°17'712.8
2016-Jul-26 10:33N 35°00' E 140°10'23 7.2
2016-Jul-26 07:23N 35°11' E 139°46'1011.8
2016-Jul-26 06:33N 35°21' E 139°43'1010.3
2016-Jul-26 05:33N 35°30' E 139°46'1 1.0
2016-Jul-26 04:29N 35°30' E 139°45'0 0.0
2016-Jul-26 03:29N 35°30' E 139°45'0 0.0
2016-Jul-26 02:29N 35°30' E 139°45'0 0.0
2016-Jul-26 01:32N 35°30' E 139°45'0 0.0
2016-Jul-26 00:32N 35°30' E 139°45'2 2.4
2016-Jul-25 23:33N 35°30' E 139°48'1 1.2
2016-Jul-25 22:31N 35°29' E 139°49'0 0.0
2016-Jul-25 21:31N 35°29' E 139°49'0 0.0
2016-Jul-25 20:31N 35°29' E 139°49'0 0.1
2016-Jul-25 19:31N 35°29' E 139°49'0 0.0
2016-Jul-25 18:31N 35°29' E 139°49'0 0.0
2016-Jul-25 17:31N 35°29' E 139°49'0 0.0
2016-Jul-25 16:31N 35°29' E 139°49'0 0.0
2016-Jul-25 15:31N 35°29' E 139°49'5 4.7
2016-Jul-25 14:33N 35°25' E 139°46'1111.4
2016-Jul-25 13:33N 35°13' E 139°47'1713.2
2016-Jul-25 12:18N 34°57' E 139°44'2211.2
2016-Jul-25 10:18N 35°01' E 140°11'58 5.3
2016-Jul-24 23:11N 35°54' E 140°41'57 4.8
2016-Jul-24 11:25N 35°02' E 140°13'1511.8
2016-Jul-24 10:07N 34°53' E 139°58'22 8.7
2016-Jul-24 07:33N 35°13' E 139°46'1211.6
2016-Jul-24 06:33N 35°25' E 139°43'6 5.6
2016-Jul-24 05:33N 35°30' E 139°45'0 0.0
2016-Jul-24 04:33N 35°30' E 139°45'0 0.0
2016-Jul-24 03:33N 35°30' E 139°45'0 0.0
2016-Jul-24 02:30N 35°30' E 139°45'0 0.0
2016-Jul-24 01:33N 35°30' E 139°45'0 0.0
2016-Jul-24 00:33N 35°30' E 139°45'3 3.3
2016-Jul-23 23:31N 35°29' E 139°49'0 0.0
2016-Jul-23 22:31N 35°29' E 139°49'0 0.0
2016-Jul-23 21:31N 35°29' E 139°49'0 0.0
2016-Jul-23 20:31N 35°29' E 139°49'0 0.0
2016-Jul-23 19:31N 35°29' E 139°49'0 0.0
2016-Jul-23 18:31N 35°29' E 139°49'0 0.0
2016-Jul-23 17:28N 35°29' E 139°49'0 0.0
2016-Jul-23 16:31N 35°29' E 139°49'0 0.0
2016-Jul-23 15:31N 35°29' E 139°49'4 4.3
2016-Jul-23 14:33N 35°25' E 139°47'1110.5
2016-Jul-23 13:33N 35°15' E 139°47'24 7.5
2016-Jul-23 10:20N 34°60' E 140°10'62 5.2
2016-Jul-22 22:20N 35°56' E 140°42'1 0.5
2016-Jul-22 21:04N 35°57' E 140°42'0 0.0
2016-Jul-22 19:04N 35°57' E 140°42'4 6.9
2016-Jul-22 18:30N 35°55' E 140°46'29 9.4
2016-Jul-22 15:26N 35°26' E 140°42'3411.1
2016-Jul-22 12:22N 35°01' E 140°13'1011.7
2016-Jul-22 11:33N 34°56' E 140°03'1510.4
2016-Jul-22 10:06N 34°56' E 139°45'811.4
2016-Jul-22 09:27N 35°03' E 139°44'1212.7
2016-Jul-22 08:30N 35°15' E 139°46'1111.4
2016-Jul-22 07:33N 35°26' E 139°44'5 0.9
2016-Jul-22 02:28N 35°30' E 139°45'0 0.1
2016-Jul-22 01:33N 35°30' E 139°45'3 2.6
2016-Jul-22 00:33N 35°30' E 139°48'1 1.2
2016-Jul-21 23:33N 35°29' E 139°49'0 0.0
2016-Jul-21 22:33N 35°29' E 139°49'0 0.0
2016-Jul-21 21:33N 35°29' E 139°49'0 0.0
2016-Jul-21 20:33N 35°29' E 139°49'0 0.3
2016-Jul-21 19:34N 35°29' E 139°49'1211.9
2016-Jul-21 18:33N 35°17' E 139°45'26 7.7
2016-Jul-21 15:14N 34°58' E 140°07'3512.4
2016-Jul-21 12:26N 35°24' E 140°34'30 3.6
2016-Jul-21 04:05N 35°54' E 140°41'60 4.4
2016-Jul-20 14:33N 34°59' E 140°09'22 7.3
2016-Jul-20 11:33N 35°10' E 139°46'1312.7
2016-Jul-20 10:33N 35°22' E 139°42'8 8.1
2016-Jul-20 09:34N 35°30' E 139°45'0 0.0
2016-Jul-20 06:10N 35°30' E 139°45'0 0.0
2016-Jul-20 04:28N 35°30' E 139°45'4 4.7
2016-Jul-20 03:34N 35°26' E 139°47'1110.5
2016-Jul-20 02:32N 35°15' E 139°47'  

Dump ship's entire track history